createdAt,value
2018-07-14T00:00:33.234Z,60.06
2018-07-14T00:01:33.402Z,73.97
2018-07-14T00:02:33.576Z,92.29
2018-07-14T00:03:33.734Z,61.52
2018-07-14T00:07:16.227Z,62.01
2018-07-14T00:08:16.442Z,61.04
2018-07-14T00:09:16.553Z,48.10
2018-07-14T00:10:16.659Z,55.66
2018-07-14T00:11:16.837Z,70.80
2018-07-14T00:12:16.998Z,61.04
2018-07-14T00:13:17.197Z,45.90
2018-07-14T00:14:17.373Z,49.80
2018-07-14T00:15:17.545Z,73.97
2018-07-14T00:18:59.987Z,50.78
2018-07-14T00:20:00.153Z,55.91
2018-07-14T00:21:00.329Z,57.62
2018-07-14T00:22:00.488Z,62.74
2018-07-14T00:23:00.661Z,65.43
2018-07-14T00:24:00.849Z,74.22
2018-07-14T00:25:01.019Z,69.09
2018-07-14T00:26:01.185Z,72.27
2018-07-14T00:27:01.351Z,70.56
2018-07-14T00:28:01.527Z,61.04
2018-07-14T00:29:01.704Z,66.16
2018-07-14T00:30:01.866Z,64.70
2018-07-14T00:31:02.078Z,60.55
2018-07-14T00:32:02.195Z,65.19
2018-07-14T00:35:44.800Z,52.25
2018-07-14T00:36:44.967Z,61.77
2018-07-14T00:37:45.139Z,63.96
2018-07-14T00:38:45.309Z,68.36
2018-07-14T00:39:45.480Z,56.40
2018-07-14T00:40:45.635Z,65.67
2018-07-14T00:41:45.800Z,73.00
2018-07-14T00:42:45.974Z,63.96
2018-07-14T00:43:46.133Z,63.23
2018-07-14T00:44:47.005Z,60.06
2018-07-14T00:45:46.420Z,48.58
2018-07-14T00:46:46.588Z,61.52
2018-07-14T00:47:46.746Z,57.62
2018-07-14T00:48:46.933Z,55.42
2018-07-14T00:52:29.364Z,52.49
2018-07-14T00:53:29.531Z,64.21
2018-07-14T00:54:29.701Z,59.81
2018-07-14T00:55:29.864Z,50.05
2018-07-14T00:56:30.033Z,43.21
2018-07-14T00:57:30.205Z,48.34
2018-07-14T00:58:30.371Z,65.92
2018-07-14T00:59:30.537Z,58.11
2018-07-14T01:00:30.710Z,55.91
2018-07-14T01:01:30.863Z,48.34
2018-07-14T01:02:31.035Z,49.07
2018-07-14T01:03:31.193Z,45.65
2018-07-14T01:04:31.358Z,49.32
2018-07-14T01:05:31.532Z,42.72
2018-07-14T01:09:14.260Z,46.88
2018-07-14T01:10:14.427Z,43.95
2018-07-14T01:11:14.596Z,41.99
2018-07-14T01:12:14.757Z,49.56
2018-07-14T01:13:14.936Z,53.71
2018-07-14T01:14:15.102Z,60.79
2018-07-14T01:15:15.275Z,55.91
2018-07-14T01:16:15.440Z,41.26
2018-07-14T01:17:15.607Z,51.27
2018-07-14T01:20:58.051Z,59.33
2018-07-14T01:21:58.218Z,59.33
2018-07-14T01:22:58.385Z,58.59
2018-07-14T01:23:58.552Z,41.26
2018-07-14T01:24:58.718Z,52.25
2018-07-14T01:25:58.884Z,62.50
2018-07-14T01:26:59.056Z,51.51
2018-07-14T01:27:59.211Z,51.76
2018-07-14T01:28:59.394Z,42.48
2018-07-14T01:29:59.553Z,42.24
2018-07-14T01:30:59.727Z,51.27
2018-07-14T01:31:59.891Z,64.45
2018-07-14T01:33:00.047Z,53.96
2018-07-14T01:34:00.214Z,49.32
2018-07-14T01:37:42.649Z,45.90
2018-07-14T01:38:42.823Z,43.21
2018-07-14T01:39:43.525Z,46.63
2018-07-14T01:40:43.219Z,44.68
2018-07-14T01:41:43.364Z,40.04
2018-07-14T01:42:43.538Z,49.80
2018-07-14T01:43:43.703Z,56.15
2018-07-14T01:44:43.871Z,64.94
2018-07-14T01:45:44.040Z,49.32
2018-07-14T01:46:44.206Z,50.54
2018-07-14T01:47:44.378Z,47.12
2018-07-14T01:48:44.548Z,44.92
2018-07-14T01:49:44.713Z,42.72
2018-07-14T01:50:44.881Z,41.26
2018-07-14T01:54:27.335Z,64.70
2018-07-14T01:55:27.543Z,64.45
2018-07-14T01:56:27.703Z,51.51
2018-07-14T01:57:27.864Z,49.32
2018-07-14T01:58:28.030Z,46.63
2018-07-14T01:59:28.195Z,65.67
2018-07-14T02:00:28.370Z,44.92
2018-07-14T02:01:28.520Z,62.99
2018-07-14T02:02:28.712Z,60.79
2018-07-14T02:06:11.145Z,46.39
2018-07-14T02:07:11.316Z,44.43
2018-07-14T02:08:11.480Z,48.10
2018-07-14T02:09:11.662Z,50.78
2018-07-14T02:10:11.817Z,43.21
2018-07-14T02:11:11.981Z,44.43
2018-07-14T02:12:12.158Z,44.19
2018-07-14T02:13:12.312Z,46.14
2018-07-14T02:14:12.482Z,49.56
2018-07-14T02:17:54.912Z,46.39
2018-07-14T02:18:55.080Z,65.43
2018-07-14T02:19:55.247Z,49.07
2018-07-14T02:20:55.422Z,42.72
2018-07-14T02:21:55.574Z,58.84
2018-07-14T02:22:55.749Z,46.63
2018-07-14T02:23:55.914Z,49.80
2018-07-14T02:24:56.081Z,45.90
2018-07-14T02:25:56.250Z,52.73
2018-07-14T02:26:56.419Z,53.96
2018-07-14T02:27:56.585Z,52.73
2018-07-14T02:28:56.748Z,54.69
2018-07-14T02:29:56.930Z,63.72
2018-07-14T02:30:57.097Z,43.70
2018-07-14T02:34:39.532Z,45.65
2018-07-14T02:35:39.704Z,43.95
2018-07-14T02:36:39.865Z,46.39
2018-07-14T02:37:40.035Z,46.88
2018-07-14T02:38:40.199Z,49.80
2018-07-14T02:39:40.375Z,47.85
2018-07-14T02:40:40.538Z,48.10
2018-07-14T02:41:40.709Z,54.44
2018-07-14T02:42:40.873Z,62.01
2018-07-14T02:43:41.046Z,51.03
2018-07-14T02:44:41.209Z,50.05
2018-07-14T02:45:41.383Z,57.13
2018-07-14T02:46:41.544Z,53.47
2018-07-14T02:47:41.709Z,50.78
2018-07-14T02:51:24.128Z,50.05
2018-07-14T02:52:24.311Z,50.05
2018-07-14T02:53:24.485Z,50.29
2018-07-14T02:54:24.661Z,54.20
2018-07-14T02:55:24.821Z,50.05
2018-07-14T02:56:24.986Z,55.91
2018-07-14T02:57:25.153Z,72.27
2018-07-14T02:58:25.317Z,67.14
2018-07-14T02:59:25.483Z,69.58
2018-07-14T03:03:07.929Z,61.28
2018-07-14T03:04:08.094Z,56.64
2018-07-14T03:05:08.262Z,73.49
2018-07-14T03:06:08.433Z,50.78
2018-07-14T03:07:08.600Z,55.66
2018-07-14T03:08:08.762Z,59.33
2018-07-14T03:09:08.926Z,52.73
2018-07-14T03:10:09.102Z,57.37
2018-07-14T03:11:09.259Z,55.42
2018-07-14T03:12:09.424Z,53.71
2018-07-14T03:13:09.593Z,49.80
2018-07-14T03:14:09.748Z,61.52
2018-07-14T03:15:09.918Z,58.35
2018-07-14T03:16:10.072Z,56.64
2018-07-14T03:19:52.503Z,54.69
2018-07-14T03:20:52.688Z,61.28
2018-07-14T03:21:52.847Z,51.51
2018-07-14T03:22:53.012Z,52.98
2018-07-14T03:23:53.184Z,51.03
2018-07-14T03:24:53.351Z,56.88
2018-07-14T03:25:53.524Z,58.35
2018-07-14T03:26:53.692Z,80.81
2018-07-14T03:27:53.857Z,59.57
2018-07-14T03:31:36.287Z,53.22
2018-07-14T03:32:36.455Z,52.98
2018-07-14T03:33:36.621Z,68.85
2018-07-14T03:34:36.789Z,60.55
2018-07-14T03:35:36.942Z,64.45
2018-07-14T03:36:37.157Z,63.72
2018-07-14T03:37:37.284Z,66.41
2018-07-14T03:38:37.449Z,65.67
2018-07-14T03:39:37.624Z,70.31
2018-07-14T03:43:20.084Z,79.59
2018-07-14T03:44:20.244Z,65.92
2018-07-14T03:45:20.406Z,71.53
2018-07-14T03:46:20.579Z,66.16
2018-07-14T03:47:20.748Z,68.12
2018-07-14T03:48:20.914Z,60.30
2018-07-14T03:49:21.085Z,63.23
2018-07-14T03:50:21.251Z,58.11
2018-07-14T03:51:21.437Z,58.11
2018-07-14T03:52:21.603Z,68.36
2018-07-14T03:53:21.781Z,75.68
2018-07-14T03:54:21.943Z,80.08
2018-07-14T03:55:22.107Z,73.00
2018-07-14T03:56:22.276Z,68.85
2018-07-14T04:00:04.696Z,57.86
2018-07-14T04:01:04.858Z,73.24
2018-07-14T04:02:05.031Z,74.46
2018-07-14T04:03:05.200Z,62.26
2018-07-14T04:04:05.370Z,61.04
2018-07-14T04:05:05.533Z,64.45
2018-07-14T04:06:05.698Z,58.59
2018-07-14T04:07:05.869Z,56.40
2018-07-14T04:08:06.035Z,55.66
2018-07-14T04:09:06.203Z,58.84
2018-07-14T04:10:06.366Z,59.33
2018-07-14T04:11:06.532Z,64.45
2018-07-14T04:12:06.694Z,62.99
2018-07-14T04:13:06.859Z,69.09
2018-07-14T04:16:49.291Z,63.23
2018-07-14T04:17:49.460Z,48.58
2018-07-14T04:18:49.629Z,50.05
2018-07-14T04:19:49.801Z,52.49
2018-07-14T04:20:49.965Z,57.86
2018-07-14T04:21:50.133Z,55.18
2018-07-14T04:22:50.344Z,56.64
2018-07-14T04:23:50.513Z,57.13
2018-07-14T04:24:50.631Z,61.77
2018-07-14T04:28:33.096Z,56.15
2018-07-14T04:29:33.264Z,53.22
2018-07-14T04:30:33.427Z,66.16
2018-07-14T04:31:33.593Z,63.72
2018-07-14T04:32:33.760Z,61.52
2018-07-14T04:33:33.930Z,64.94
2018-07-14T04:34:34.093Z,60.30
2018-07-14T04:35:34.267Z,57.86
2018-07-14T04:36:34.425Z,55.42
2018-07-14T04:37:34.592Z,53.22
2018-07-14T04:38:34.762Z,62.50
2018-07-14T04:39:34.925Z,52.25
2018-07-14T04:40:35.094Z,68.85
2018-07-14T04:41:35.260Z,58.35
2018-07-14T04:45:17.720Z,58.11
2018-07-14T04:46:17.888Z,51.03
2018-07-14T04:47:18.053Z,61.28
2018-07-14T04:48:18.220Z,60.30
2018-07-14T04:49:18.388Z,55.91
2018-07-14T04:50:18.555Z,52.00
2018-07-14T04:51:18.723Z,61.77
2018-07-14T04:52:18.888Z,61.28
2018-07-14T04:53:19.056Z,65.67
2018-07-14T04:54:19.219Z,67.38
2018-07-14T04:55:19.384Z,52.73
2018-07-14T04:56:19.552Z,69.34
2018-07-14T04:57:19.720Z,71.53
2018-07-14T04:58:19.881Z,57.62
2018-07-14T05:02:02.327Z,56.88
2018-07-14T05:03:02.500Z,62.99
2018-07-14T05:04:02.665Z,56.64
2018-07-14T05:05:02.833Z,65.19
2018-07-14T05:06:03.000Z,67.63
2018-07-14T05:07:03.165Z,55.66
2018-07-14T05:08:03.335Z,52.98
2018-07-14T05:09:03.509Z,53.47
2018-07-14T05:10:03.666Z,49.32
2018-07-14T05:13:46.410Z,66.65
2018-07-14T05:14:46.585Z,64.94
2018-07-14T05:15:46.758Z,65.19
2018-07-14T05:16:46.920Z,58.11
2018-07-14T05:17:47.089Z,52.25
2018-07-14T05:18:47.266Z,50.05
2018-07-14T05:19:47.433Z,65.19
2018-07-14T05:20:47.593Z,66.16
2018-07-14T05:21:47.779Z,64.45
2018-07-14T05:25:37.387Z,59.57
2018-07-14T05:26:30.422Z,54.69
2018-07-14T05:27:30.594Z,60.55
2018-07-14T05:28:30.761Z,61.04
2018-07-14T05:29:30.933Z,65.43
2018-07-14T05:30:31.082Z,78.37
2018-07-14T05:31:31.250Z,70.56
2018-07-14T05:32:31.427Z,69.34
2018-07-14T05:33:31.587Z,61.28
2018-07-14T05:34:31.753Z,56.64
2018-07-14T05:35:31.918Z,65.43
2018-07-14T05:39:21.464Z,63.23
2018-07-14T05:40:14.503Z,52.49
2018-07-14T05:41:14.672Z,63.23
2018-07-14T05:42:14.835Z,76.90
2018-07-14T05:43:15.000Z,63.23
2018-07-14T05:44:15.173Z,71.78
2018-07-14T05:45:15.346Z,52.98
2018-07-14T05:46:15.514Z,62.26
2018-07-14T05:47:15.669Z,66.16
2018-07-14T05:48:15.859Z,74.22
2018-07-14T05:49:16.017Z,67.87
2018-07-14T05:52:58.692Z,66.89
2018-07-14T05:54:06.324Z,62.01
2018-07-14T05:54:58.987Z,67.38
2018-07-14T05:55:59.154Z,76.90
2018-07-14T05:56:59.318Z,67.14
2018-07-14T05:57:59.486Z,69.58
2018-07-14T05:58:59.657Z,74.22
2018-07-14T05:59:59.824Z,74.22
2018-07-14T06:00:59.991Z,75.44
2018-07-14T06:02:07.615Z,68.36
2018-07-14T06:03:00.280Z,71.29
2018-07-14T06:04:00.459Z,63.72
2018-07-14T06:05:00.629Z,71.78
2018-07-14T06:06:00.807Z,55.42
2018-07-14T06:07:00.962Z,53.22
2018-07-14T06:08:01.128Z,73.97
2018-07-14T06:09:01.302Z,71.53
2018-07-14T06:10:01.491Z,66.41
2018-07-14T06:11:01.710Z,59.81
2018-07-14T06:12:01.839Z,78.86
2018-07-14T06:13:01.997Z,62.01
2018-07-14T06:14:02.165Z,57.86
2018-07-14T06:15:02.336Z,62.99
2018-07-14T06:16:02.512Z,67.14
2018-07-14T06:19:44.944Z,75.44
2018-07-14T06:20:45.124Z,68.85
2018-07-14T06:21:45.295Z,73.00
2018-07-14T06:22:45.466Z,71.78
2018-07-14T06:23:45.633Z,64.45
2018-07-14T06:24:45.801Z,74.95
2018-07-14T06:25:45.961Z,69.58
2018-07-14T06:26:46.133Z,73.00
2018-07-14T06:27:46.300Z,79.10
2018-07-14T06:28:46.467Z,77.64
2018-07-14T06:29:46.631Z,83.50
2018-07-14T06:30:46.811Z,70.56
2018-07-14T06:31:46.978Z,73.97
2018-07-14T06:32:47.147Z,63.23
2018-07-14T06:36:29.594Z,77.88
2018-07-14T06:37:29.765Z,87.40
2018-07-14T06:38:29.995Z,73.73
2018-07-14T06:39:30.103Z,72.51
2018-07-14T06:40:30.872Z,68.60
2018-07-14T06:41:30.438Z,79.59
2018-07-14T06:42:30.613Z,73.49
2018-07-14T06:43:30.779Z,75.20
2018-07-14T06:44:30.953Z,77.88
2018-07-14T06:45:31.119Z,75.20
2018-07-14T06:46:31.286Z,62.50
2018-07-14T06:47:31.450Z,65.43
2018-07-14T06:48:31.616Z,72.51
2018-07-14T06:49:31.788Z,69.34
2018-07-14T06:53:14.549Z,79.35
2018-07-14T06:54:14.774Z,73.49
2018-07-14T06:55:14.888Z,70.31
2018-07-14T06:56:15.057Z,65.67
2018-07-14T06:57:15.217Z,66.16
2018-07-14T06:58:15.398Z,81.30
2018-07-14T06:59:23.233Z,69.34
2018-07-14T07:00:15.782Z,73.00
2018-07-14T07:01:15.954Z,73.73
2018-07-14T07:02:16.117Z,62.50
2018-07-14T07:03:16.336Z,64.21
2018-07-14T07:04:16.450Z,67.87
2018-07-14T07:05:16.617Z,70.31
2018-07-14T07:06:16.786Z,76.66
2018-07-14T07:07:16.957Z,66.65
2018-07-14T07:08:17.135Z,63.96
2018-07-14T07:09:24.954Z,65.19
2018-07-14T07:10:17.500Z,75.68
2018-07-14T07:11:17.668Z,65.43
2018-07-14T07:12:17.822Z,70.56
2018-07-14T07:13:18.017Z,73.97
2018-07-14T07:14:18.275Z,67.63
2018-07-14T07:15:18.409Z,66.41
2018-07-14T07:16:18.577Z,59.33
2018-07-14T07:17:18.751Z,65.19
2018-07-14T07:18:18.923Z,67.14
2018-07-14T07:19:19.093Z,68.12
2018-07-14T07:20:19.270Z,64.45
2018-07-14T07:21:19.446Z,64.21
2018-07-14T07:22:28.777Z,74.95
2018-07-14T07:23:19.756Z,70.31
2018-07-14T07:24:19.921Z,66.16
2018-07-14T07:25:20.063Z,73.97
2018-07-14T07:26:20.249Z,58.59
2018-07-14T07:27:20.412Z,58.59
2018-07-14T07:28:20.579Z,78.86
2018-07-14T07:29:20.754Z,70.07
2018-07-14T07:30:20.912Z,73.97
2018-07-14T07:31:21.077Z,73.49
2018-07-14T07:32:21.258Z,70.07
2018-07-14T07:33:21.416Z,89.60
2018-07-14T07:34:21.586Z,64.70
2018-07-14T07:35:21.777Z,66.41
2018-07-14T07:36:21.919Z,74.46
2018-07-14T07:37:22.089Z,64.21
2018-07-14T07:41:04.592Z,68.36
2018-07-14T07:42:05.449Z,80.32
2018-07-14T07:43:12.080Z,72.02
2018-07-14T07:44:04.937Z,74.95
2018-07-14T07:45:05.214Z,66.65
2018-07-14T07:46:12.459Z,64.45
2018-07-14T07:47:05.384Z,66.41
2018-07-14T07:48:05.554Z,58.84
2018-07-14T07:49:05.725Z,60.55
2018-07-14T07:50:05.891Z,86.18
2018-07-14T07:51:06.048Z,72.27
2018-07-14T07:52:06.234Z,64.45
2018-07-14T07:53:06.404Z,65.92
2018-07-14T07:54:06.565Z,67.63
2018-07-14T07:55:06.746Z,66.65
2018-07-14T07:56:06.920Z,65.19
2018-07-14T07:59:50.392Z,72.75
2018-07-14T08:00:50.567Z,73.97
2018-07-14T08:01:50.737Z,64.70
2018-07-14T08:02:50.912Z,66.65
2018-07-14T08:03:51.083Z,67.87
2018-07-14T08:04:51.248Z,70.31
2018-07-14T08:05:51.420Z,72.27
2018-07-14T08:06:51.599Z,84.47
2018-07-14T08:08:00.728Z,63.48
2018-07-14T08:08:51.889Z,68.36
2018-07-14T08:09:52.062Z,74.46
2018-07-14T08:10:52.234Z,68.60
2018-07-14T08:11:52.404Z,83.25
2018-07-14T08:15:24.359Z,66.16
2018-07-14T08:16:24.527Z,62.74
2018-07-14T08:17:24.699Z,69.09
2018-07-14T08:18:24.870Z,63.72
2018-07-14T08:19:25.046Z,71.53
2018-07-14T08:20:25.211Z,76.90
2018-07-14T08:21:25.398Z,69.09
2018-07-14T08:22:25.569Z,70.80
2018-07-14T08:23:25.749Z,72.02
2018-07-14T08:28:19.012Z,65.67
2018-07-14T08:29:26.478Z,62.50
2018-07-14T08:30:10.475Z,92.29
2018-07-14T08:31:18.490Z,71.29
2018-07-14T08:32:27.556Z,78.13
2018-07-14T08:33:13.480Z,67.87
2018-07-14T08:39:09.858Z,72.75
2018-07-14T08:40:11.355Z,68.85
2018-07-14T08:43:11.852Z,71.04
2018-07-14T08:44:25.850Z,63.48
2018-07-14T08:49:29.972Z,83.98
2018-07-14T08:50:30.107Z,69.34
2018-07-14T08:51:37.685Z,71.04
2018-07-14T08:52:30.343Z,70.07
2018-07-14T08:53:31.103Z,83.98
2018-07-14T08:54:30.649Z,68.60
2018-07-14T08:55:38.803Z,66.16
2018-07-14T08:56:31.173Z,65.67
2018-07-14T08:57:31.169Z,70.07
2018-07-14T08:58:31.331Z,62.74
2018-07-14T08:59:31.505Z,71.78
2018-07-14T09:00:31.670Z,72.75
2018-07-14T09:01:31.850Z,73.49
2018-07-14T09:02:32.023Z,67.87
2018-07-14T09:03:32.220Z,66.16
2018-07-14T09:04:32.362Z,68.85
2018-07-14T09:05:32.543Z,66.16
2018-07-14T09:06:32.702Z,66.16
2018-07-14T09:07:32.876Z,63.96
2018-07-14T09:08:33.054Z,64.94
2018-07-14T09:09:33.221Z,68.60
2018-07-14T09:10:33.395Z,78.61
2018-07-14T09:14:15.873Z,66.16
2018-07-14T09:15:16.048Z,63.96
2018-07-14T09:16:17.237Z,66.65
2018-07-14T09:17:16.460Z,65.92
2018-07-14T09:18:16.629Z,66.41
2018-07-14T09:19:16.804Z,67.38
2018-07-14T09:20:16.977Z,65.19
2018-07-14T09:21:18.707Z,65.43
2018-07-14T09:22:17.251Z,71.53
2018-07-14T09:23:17.427Z,69.09
2018-07-14T09:24:17.603Z,65.43
2018-07-14T09:25:17.779Z,72.27
2018-07-14T09:26:17.950Z,69.82
2018-07-14T09:27:18.141Z,69.58
2018-07-14T09:31:00.863Z,73.00
2018-07-14T09:32:01.038Z,64.45
2018-07-14T09:33:01.216Z,68.85
2018-07-14T09:34:01.385Z,61.52
2018-07-14T09:35:01.570Z,69.34
2018-07-14T09:36:01.739Z,80.32
2018-07-14T09:37:01.920Z,71.29
2018-07-14T09:38:02.122Z,71.04
2018-07-14T09:39:02.267Z,67.87
2018-07-14T09:40:02.432Z,68.85
2018-07-14T09:41:02.605Z,71.04
2018-07-14T09:42:02.777Z,65.19
2018-07-14T09:43:02.945Z,75.44
2018-07-14T09:44:03.973Z,70.07
2018-07-14T09:47:36.762Z,66.89
2018-07-14T09:48:37.182Z,68.60
2018-07-14T09:49:37.355Z,65.43
2018-07-14T09:50:44.745Z,67.87
2018-07-14T09:51:37.415Z,73.73
2018-07-14T09:52:37.601Z,67.38
2018-07-14T09:53:37.758Z,70.80
2018-07-14T09:54:37.950Z,66.65
2018-07-14T09:55:38.101Z,71.04
2018-07-14T09:56:46.229Z,76.66
2018-07-14T09:57:38.400Z,74.71
2018-07-14T09:58:38.565Z,64.94
2018-07-14T09:59:38.742Z,73.97
2018-07-14T10:00:38.907Z,74.46
2018-07-14T10:01:46.542Z,74.71
2018-07-14T10:02:39.207Z,83.01
2018-07-14T10:03:39.391Z,73.97
2018-07-14T10:04:39.561Z,72.51
2018-07-14T10:05:39.727Z,75.68
2018-07-14T10:06:39.903Z,69.82
2018-07-14T10:07:40.085Z,70.31
2018-07-14T10:08:40.233Z,70.31
2018-07-14T10:09:40.423Z,71.29
2018-07-14T10:10:40.590Z,70.80
2018-07-14T10:11:40.770Z,75.20
2018-07-14T10:15:14.231Z,92.04
2018-07-14T10:16:14.415Z,66.16
2018-07-14T10:17:17.157Z,68.36
2018-07-14T10:18:14.804Z,78.37
2018-07-14T10:19:14.973Z,65.92
2018-07-14T10:20:15.169Z,67.63
2018-07-14T10:21:15.351Z,79.10
2018-07-14T10:22:15.738Z,74.71
2018-07-14T10:23:15.613Z,66.41
2018-07-14T10:24:15.820Z,67.38
2018-07-14T10:25:16.110Z,68.60
2018-07-14T10:26:18.064Z,73.49
2018-07-14T10:27:16.385Z,68.12
2018-07-14T10:28:16.586Z,68.36
2018-07-14T10:29:16.759Z,74.95
2018-07-14T10:30:16.924Z,72.75
2018-07-14T10:31:17.094Z,74.22
2018-07-14T10:32:17.258Z,67.38
2018-07-14T10:33:17.449Z,66.89
2018-07-14T10:34:17.678Z,86.18
2018-07-14T10:35:17.845Z,71.78
2018-07-14T10:36:18.000Z,71.29
2018-07-14T10:37:18.193Z,73.24
2018-07-14T10:38:18.378Z,78.13
2018-07-14T10:39:18.542Z,73.49
2018-07-14T10:40:18.778Z,71.29
2018-07-14T10:41:18.944Z,68.85
2018-07-14T10:42:19.160Z,78.37
2018-07-14T10:43:19.289Z,68.60
2018-07-14T10:44:20.090Z,67.14
2018-07-14T10:45:19.634Z,73.97
2018-07-14T10:46:19.805Z,74.22
2018-07-14T10:47:20.273Z,74.46
2018-07-14T10:48:21.290Z,68.36
2018-07-14T10:49:28.644Z,78.13
2018-07-14T10:50:20.550Z,67.87
2018-07-14T10:51:20.728Z,72.27
2018-07-14T10:52:20.904Z,70.07
2018-07-14T10:53:21.082Z,67.63
2018-07-14T10:54:21.258Z,81.79
2018-07-14T10:55:21.429Z,68.12
2018-07-14T10:56:21.603Z,70.80
2018-07-14T10:57:21.775Z,81.79
2018-07-14T10:58:21.945Z,66.89
2018-07-14T10:59:22.108Z,76.17
2018-07-14T11:00:30.325Z,76.17
2018-07-14T11:01:22.533Z,79.10
2018-07-14T11:02:22.707Z,68.60
2018-07-14T11:03:23.062Z,69.34
2018-07-14T11:04:23.158Z,72.27
2018-07-14T11:05:23.172Z,67.87
2018-07-14T11:06:23.486Z,71.53
2018-07-14T11:07:23.592Z,68.60
2018-07-14T11:08:23.718Z,88.87
2018-07-14T11:09:27.699Z,69.34
2018-07-14T11:10:24.049Z,83.74
2018-07-14T11:11:24.208Z,67.63
2018-07-14T11:12:26.977Z,73.24
2018-07-14T11:13:32.268Z,75.68
2018-07-14T11:14:24.685Z,70.07
2018-07-14T11:15:24.859Z,78.13
2018-07-14T11:16:25.034Z,69.82
2018-07-14T11:17:26.175Z,72.02
2018-07-14T11:18:25.348Z,70.31
2018-07-14T11:19:25.644Z,73.73
2018-07-14T11:20:25.694Z,74.95
2018-07-14T11:21:25.858Z,71.29
2018-07-14T11:22:26.032Z,71.29
2018-07-14T11:23:26.207Z,74.22
2018-07-14T11:24:26.380Z,73.97
2018-07-14T11:25:26.551Z,76.17
2018-07-14T11:26:34.683Z,93.51
2018-07-14T11:27:26.851Z,77.15
2018-07-14T11:28:27.042Z,70.80
2018-07-14T11:29:27.196Z,76.17
2018-07-14T11:30:27.370Z,76.90
2018-07-14T11:31:27.544Z,83.98
2018-07-14T11:32:27.720Z,84.23
2018-07-14T11:33:27.897Z,73.97
2018-07-14T11:34:28.093Z,75.93
2018-07-14T11:35:28.253Z,73.24
2018-07-14T11:36:28.435Z,81.79
2018-07-14T11:37:28.576Z,69.58
2018-07-14T11:38:28.763Z,68.85
2018-07-14T11:39:28.937Z,67.87
2018-07-14T11:40:29.111Z,81.79
2018-07-14T11:41:29.308Z,71.29
2018-07-14T11:45:13.073Z,70.80
2018-07-14T11:46:13.242Z,72.02
2018-07-14T11:47:13.416Z,69.34
2018-07-14T11:48:13.590Z,73.00
2018-07-14T11:49:13.764Z,69.34
2018-07-14T11:52:46.236Z,88.38
2018-07-14T11:53:46.398Z,84.23
2018-07-14T11:54:46.582Z,73.00
2018-07-14T11:55:46.753Z,71.04
2018-07-14T11:56:46.929Z,72.02
2018-07-14T11:57:47.102Z,72.02
2018-07-14T11:58:47.285Z,68.60
2018-07-14T11:59:56.141Z,75.20
2018-07-14T12:00:47.651Z,78.13
2018-07-14T12:01:47.822Z,72.75
2018-07-14T12:02:47.997Z,72.02
2018-07-14T12:03:48.178Z,73.24
2018-07-14T12:04:48.338Z,78.37
2018-07-14T12:05:48.523Z,73.49
2018-07-14T12:06:48.694Z,70.80
2018-07-14T12:07:48.873Z,72.02
2018-07-14T12:08:49.053Z,70.56
2018-07-14T12:09:49.216Z,73.73
2018-07-14T12:10:50.125Z,69.09
2018-07-14T12:11:49.539Z,71.78
2018-07-14T12:12:49.711Z,75.68
2018-07-14T12:13:49.886Z,73.00
2018-07-14T12:17:32.404Z,75.44
2018-07-14T12:18:32.568Z,70.56
2018-07-14T12:19:32.892Z,80.57
2018-07-14T12:20:32.934Z,74.22
2018-07-14T12:21:33.105Z,74.46
2018-07-14T12:22:33.284Z,75.68
2018-07-14T12:23:33.461Z,67.87
2018-07-14T12:24:33.629Z,80.32
2018-07-14T12:25:33.799Z,66.65
2018-07-14T12:26:33.983Z,71.53
2018-07-14T12:27:41.801Z,72.27
2018-07-14T12:28:34.345Z,68.12
2018-07-14T12:29:34.519Z,82.28
2018-07-14T12:30:34.697Z,71.78
2018-07-14T12:31:34.876Z,74.95
2018-07-14T12:32:35.051Z,74.71
2018-07-14T12:33:35.206Z,82.76
2018-07-14T12:34:35.379Z,70.56
2018-07-14T12:35:35.608Z,86.18
2018-07-14T12:36:35.777Z,85.69
2018-07-14T12:37:35.918Z,78.86
2018-07-14T12:41:18.684Z,67.38
2018-07-14T12:42:18.841Z,64.70
2018-07-14T12:43:20.749Z,71.04
2018-07-14T12:44:20.732Z,67.63
2018-07-14T12:45:26.587Z,65.43
2018-07-14T12:46:19.479Z,66.41
2018-07-14T12:47:19.655Z,73.49
2018-07-14T12:48:19.827Z,71.04
2018-07-14T12:49:27.921Z,62.74
2018-07-14T12:50:20.107Z,69.58
2018-07-14T12:51:20.278Z,66.41
2018-07-14T12:52:20.452Z,79.10
2018-07-14T12:53:20.631Z,69.09
2018-07-14T12:54:20.801Z,80.32
2018-07-14T12:55:20.975Z,66.16
2018-07-14T12:56:21.158Z,73.49
2018-07-14T12:57:21.362Z,70.07
2018-07-14T12:58:21.497Z,70.07
2018-07-14T12:59:22.214Z,74.22
2018-07-14T13:00:21.826Z,73.24
2018-07-14T13:01:22.047Z,65.43
2018-07-14T13:02:22.187Z,75.68
2018-07-14T13:03:22.350Z,90.09
2018-07-14T13:04:22.521Z,71.53
2018-07-14T13:08:06.275Z,65.43
2018-07-14T13:09:06.502Z,67.38
2018-07-14T13:10:06.668Z,65.19
2018-07-14T13:11:14.284Z,65.92
2018-07-14T13:12:06.944Z,65.19
2018-07-14T13:13:07.156Z,67.14
2018-07-14T13:14:07.328Z,62.99
2018-07-14T13:15:07.525Z,64.21
2018-07-14T13:16:07.676Z,66.89
2018-07-14T13:17:07.868Z,64.45
2018-07-14T13:18:08.021Z,66.16
2018-07-14T13:19:08.182Z,67.87
2018-07-14T13:20:16.322Z,73.97
2018-07-14T13:21:08.503Z,74.22
2018-07-14T13:22:08.675Z,77.64
2018-07-14T13:23:08.852Z,72.27
2018-07-14T13:24:09.023Z,65.43
2018-07-14T13:25:09.193Z,78.13
2018-07-14T13:26:09.387Z,67.14
2018-07-14T13:27:09.542Z,76.90
2018-07-14T13:28:09.708Z,68.12
2018-07-14T13:29:09.883Z,65.67
2018-07-14T13:30:10.086Z,66.65
2018-07-14T13:31:10.232Z,72.75
2018-07-14T13:34:42.699Z,67.38
2018-07-14T13:35:42.862Z,90.82
2018-07-14T13:36:43.106Z,70.31
2018-07-14T13:37:43.195Z,68.36
2018-07-14T13:38:51.264Z,72.75
2018-07-14T13:39:43.547Z,69.82
2018-07-14T13:40:51.179Z,80.81
2018-07-14T13:41:43.847Z,65.92
2018-07-14T13:42:44.032Z,63.96
2018-07-14T13:43:44.202Z,77.15
2018-07-14T13:44:44.374Z,69.82
2018-07-14T13:45:44.545Z,69.82
2018-07-14T13:46:44.717Z,76.66
2018-07-14T13:47:44.891Z,68.12
2018-07-14T13:48:45.068Z,68.36
2018-07-14T13:49:45.248Z,73.49
2018-07-14T13:50:45.413Z,70.56
2018-07-14T13:51:45.583Z,67.63
2018-07-14T13:52:45.757Z,69.58
2018-07-14T13:53:45.932Z,64.94
2018-07-14T13:54:46.109Z,68.85
2018-07-14T13:58:18.593Z,72.02
2018-07-14T13:59:18.798Z,66.16
2018-07-14T14:00:26.611Z,82.03
2018-07-14T14:01:19.163Z,70.80
2018-07-14T14:02:19.340Z,87.16
2018-07-14T14:03:19.515Z,71.78
2018-07-14T14:04:19.670Z,73.73
2018-07-14T14:05:19.857Z,70.31
2018-07-14T14:06:20.037Z,71.78
2018-07-14T14:07:20.214Z,70.56
2018-07-14T14:08:20.410Z,75.44
2018-07-14T14:09:20.586Z,73.73
2018-07-14T14:10:20.751Z,73.97
2018-07-14T14:14:03.513Z,73.73
2018-07-14T14:15:03.677Z,72.75
2018-07-14T14:16:03.868Z,74.95
2018-07-14T14:17:04.044Z,74.22
2018-07-14T14:18:11.883Z,72.75
2018-07-14T14:19:04.429Z,70.31
2018-07-14T14:20:04.653Z,92.53
2018-07-14T14:21:11.934Z,73.97
2018-07-14T14:22:04.974Z,75.44
2018-07-14T14:23:05.152Z,69.82
2018-07-14T14:24:05.321Z,65.92
2018-07-14T14:25:05.490Z,65.92
2018-07-14T14:26:05.685Z,76.42
2018-07-14T14:27:05.843Z,78.37
2018-07-14T14:28:06.015Z,70.31
2018-07-14T14:29:06.241Z,67.87
2018-07-14T14:30:06.359Z,74.71
2018-07-14T14:31:06.559Z,77.64
2018-07-14T14:32:06.707Z,84.47
2018-07-14T14:33:06.961Z,72.51
2018-07-14T14:34:07.061Z,78.13
2018-07-14T14:35:07.272Z,73.97
2018-07-14T14:38:49.677Z,76.90
2018-07-14T14:39:49.852Z,68.12
2018-07-14T14:40:50.137Z,74.22
2018-07-14T14:41:50.206Z,80.08
2018-07-14T14:42:50.383Z,70.31
2018-07-14T14:43:50.558Z,74.46
2018-07-14T14:44:50.727Z,71.29
2018-07-14T14:46:58.991Z,76.17
2018-07-14T14:47:51.282Z,70.07
2018-07-14T14:48:51.455Z,66.16
2018-07-14T14:49:51.631Z,76.90
2018-07-14T14:50:51.816Z,66.89
2018-07-14T14:54:23.757Z,81.30
2018-07-14T14:55:23.941Z,74.22
2018-07-14T14:56:24.107Z,74.95
2018-07-14T14:57:24.280Z,68.36
2018-07-14T14:58:24.465Z,72.27
2018-07-14T14:59:24.667Z,65.92
2018-07-14T15:00:24.822Z,72.27
2018-07-14T15:01:24.992Z,65.19
2018-07-14T15:02:25.188Z,64.21
2018-07-14T15:06:07.936Z,88.62
2018-07-14T15:07:08.113Z,67.38
2018-07-14T15:08:08.288Z,64.21
2018-07-14T15:09:08.471Z,94.48
2018-07-14T15:10:08.630Z,83.01
2018-07-14T15:11:08.804Z,77.15
2018-07-14T15:12:08.972Z,66.16
2018-07-14T15:13:09.151Z,82.28
2018-07-14T15:14:09.317Z,62.26